EXS11AF LEPA-EGNT
Flight info
| Callsign | EXS11AF |
|---|---|
| Flight time | N/A |
| Altitude | 38000 |
| Route | DRAGO DCT PAPOS DCT UMURE N863 GIROM DCT GONUP DCT TUPAR UN861 ANG DCT AKIKI UN867 VASUX DCT LESTA UY250 RIMTO |
| Aircraft | B738/M-SDE2E3FGHIRWXY/LB1 |
Departure
| Time | 2026-05-05 18:30 |
|---|---|
| Airport | Palma de Mallorca Airport (LEPA) |
Arrival
| Time | N/A |
|---|---|
| Airport | Newcastle International Airport (EGNT) |
| Time | Latitude | Longitude | Altitude | Speed | Heading |
|---|---|---|---|---|---|
| 2026-05-05 18:00 | 39.55053 | 2.72799 | 37 ft | 0 kts | 146° |
| 2026-05-05 18:20 | 39.55059 | 2.72795 | 37 ft | 4 kts | 146° |
| 2026-05-05 18:20 | 39.55078 | 2.72778 | 35 ft | 2 kts | 146° |
| 2026-05-05 18:21 | 39.55097 | 2.72757 | 34 ft | 4 kts | 116° |
| 2026-05-05 18:21 | 39.55100 | 2.72726 | 36 ft | 4 kts | 69° |
| 2026-05-05 18:21 | 39.55089 | 2.72697 | 34 ft | 3 kts | 58° |
| 2026-05-05 18:21 | 39.55075 | 2.72668 | 37 ft | 3 kts | 59° |
| 2026-05-05 18:22 | 39.55073 | 2.72664 | 35 ft | 0 kts | 59° |
| 2026-05-05 18:24 | 39.55076 | 2.72670 | 36 ft | 3 kts | 59° |
| 2026-05-05 18:24 | 39.55100 | 2.72722 | 37 ft | 11 kts | 59° |
| 2026-05-05 18:24 | 39.55151 | 2.72830 | 36 ft | 16 kts | 58° |
| 2026-05-05 18:25 | 39.55209 | 2.72951 | 37 ft | 16 kts | 58° |
| 2026-05-05 18:25 | 39.55246 | 2.73030 | 37 ft | 15 kts | 58° |
| 2026-05-05 18:25 | 39.55318 | 2.73181 | 35 ft | 14 kts | 57° |
| 2026-05-05 18:25 | 39.55369 | 2.73287 | 37 ft | 14 kts | 59° |
| 2026-05-05 18:26 | 39.55416 | 2.73389 | 35 ft | 13 kts | 59° |
| 2026-05-05 18:26 | 39.55463 | 2.73488 | 36 ft | 13 kts | 58° |
| 2026-05-05 18:26 | 39.55506 | 2.73566 | 37 ft | 8 kts | 31° |
| 2026-05-05 18:26 | 39.55557 | 2.73549 | 37 ft | 8 kts | 330° |
| 2026-05-05 18:27 | 39.55605 | 2.73512 | 36 ft | 8 kts | 330° |
| 2026-05-05 18:27 | 39.55668 | 2.73529 | 37 ft | 13 kts | 50° |
| 2026-05-05 18:27 | 39.55729 | 2.73658 | 37 ft | 20 kts | 58° |
| 2026-05-05 18:27 | 39.55808 | 2.73826 | 37 ft | 22 kts | 58° |
| 2026-05-05 18:28 | 39.55962 | 2.74150 | 37 ft | 18 kts | 58° |
| 2026-05-05 18:28 | 39.56027 | 2.74258 | 37 ft | 15 kts | 32° |
| 2026-05-05 18:28 | 39.56115 | 2.74319 | 36 ft | 14 kts | 27° |
| 2026-05-05 18:29 | 39.56204 | 2.74338 | 37 ft | 13 kts | 334° |
| 2026-05-05 18:29 | 39.56214 | 2.74236 | 35 ft | 14 kts | 238° |
| 2026-05-05 18:29 | 39.56091 | 2.73978 | 37 ft | 67 kts | 238° |
| 2026-05-05 18:29 | 39.55728 | 2.73208 | 37 ft | 130 kts | 238° |
| 2026-05-05 18:30 | 39.55176 | 2.72038 | 273 ft | 162 kts | 238° |
| 2026-05-05 18:30 | 39.54657 | 2.70920 | 882 ft | 167 kts | 239° |
| 2026-05-05 18:30 | 39.54044 | 2.69627 | 1567 ft | 175 kts | 238° |
| 2026-05-05 18:30 | 39.53342 | 2.68234 | 1881 ft | 197 kts | 238° |
| 2026-05-05 18:31 | 39.52554 | 2.66703 | 2238 ft | 210 kts | 237° |
| 2026-05-05 18:31 | 39.51741 | 2.65124 | 2811 ft | 210 kts | 238° |
| 2026-05-05 18:31 | 39.50925 | 2.63536 | 3415 ft | 213 kts | 238° |
| 2026-05-05 18:31 | 39.50110 | 2.61945 | 4103 ft | 213 kts | 239° |
| 2026-05-05 18:32 | 39.49291 | 2.60343 | 4807 ft | 215 kts | 239° |
| 2026-05-05 18:32 | 39.48463 | 2.58723 | 5476 ft | 216 kts | 239° |
| 2026-05-05 18:32 | 39.47631 | 2.57094 | 6136 ft | 218 kts | 239° |
| 2026-05-05 18:32 | 39.46976 | 2.55334 | 6712 ft | 218 kts | 265° |
| 2026-05-05 18:33 | 39.47294 | 2.53451 | 7326 ft | 219 kts | 298° |
| 2026-05-05 18:33 | 39.48176 | 2.51786 | 7750 ft | 235 kts | 307° |
| 2026-05-05 18:33 | 39.49301 | 2.50142 | 7959 ft | 258 kts | 309° |
| 2026-05-05 18:33 | 39.50557 | 2.48408 | 8420 ft | 268 kts | 310° |
| 2026-05-05 18:34 | 39.51852 | 2.46630 | 9072 ft | 272 kts | 309° |
| 2026-05-05 18:34 | 39.53159 | 2.44826 | 9776 ft | 275 kts | 309° |
| 2026-05-05 18:34 | 39.54485 | 2.42981 | 10242 ft | 286 kts | 308° |
| 2026-05-05 18:34 | 39.55867 | 2.41037 | 10396 ft | 307 kts | 308° |
| 2026-05-05 18:35 | 39.57358 | 2.38933 | 10660 ft | 323 kts | 308° |
| 2026-05-05 18:35 | 39.58900 | 2.36751 | 11171 ft | 331 kts | 308° |
| 2026-05-05 18:35 | 39.60464 | 2.34537 | 11805 ft | 335 kts | 307° |
| 2026-05-05 18:35 | 39.62046 | 2.32294 | 12480 ft | 338 kts | 307° |
| 2026-05-05 18:36 | 39.63650 | 2.30015 | 13137 ft | 342 kts | 306° |
| 2026-05-05 18:36 | 39.65239 | 2.27751 | 13767 ft | 346 kts | 306° |
| 2026-05-05 18:36 | 39.66868 | 2.25428 | 14370 ft | 349 kts | 306° |
| 2026-05-05 18:36 | 39.68510 | 2.23086 | 15059 ft | 351 kts | 306° |
| 2026-05-05 18:37 | 39.70160 | 2.20729 | 15735 ft | 353 kts | 306° |
| 2026-05-05 18:37 | 39.71818 | 2.18358 | 16394 ft | 355 kts | 305° |
| 2026-05-05 18:37 | 39.73484 | 2.15974 | 17055 ft | 357 kts | 305° |
| 2026-05-05 18:37 | 39.75162 | 2.13569 | 17689 ft | 360 kts | 305° |
| 2026-05-05 18:38 | 39.76834 | 2.11171 | 18307 ft | 363 kts | 304° |
| 2026-05-05 18:38 | 39.78534 | 2.08731 | 18864 ft | 365 kts | 304° |
| 2026-05-05 18:38 | 39.79668 | 2.07103 | 19295 ft | 365 kts | 304° |
| 2026-05-05 18:38 | 39.81376 | 2.04651 | 19924 ft | 365 kts | 304° |
| 2026-05-05 18:39 | 39.83087 | 2.02192 | 20489 ft | 367 kts | 304° |
| 2026-05-05 18:39 | 39.84806 | 1.99716 | 21033 ft | 369 kts | 304° |
| 2026-05-05 18:39 | 39.86511 | 1.97260 | 21571 ft | 371 kts | 304° |
| 2026-05-05 18:39 | 39.88250 | 1.94753 | 22111 ft | 372 kts | 304° |
| 2026-05-05 18:40 | 39.90000 | 1.92227 | 22646 ft | 374 kts | 304° |
| 2026-05-05 18:40 | 39.91753 | 1.89697 | 23174 ft | 376 kts | 303° |
| 2026-05-05 18:40 | 39.93510 | 1.87155 | 23515 ft | 382 kts | 303° |
| 2026-05-05 18:40 | 39.95302 | 1.84562 | 23808 ft | 386 kts | 304° |
| 2026-05-05 18:41 | 39.97074 | 1.82001 | 24293 ft | 385 kts | 303° |
| 2026-05-05 18:41 | 39.98890 | 1.79424 | 24764 ft | 388 kts | 307° |
| 2026-05-05 18:41 | 40.01013 | 1.77132 | 25142 ft | 401 kts | 316° |
| 2026-05-05 18:41 | 40.03426 | 1.75208 | 25498 ft | 414 kts | 324° |
| 2026-05-05 18:42 | 40.06123 | 1.73694 | 25791 ft | 425 kts | 329° |
| 2026-05-05 18:42 | 40.08889 | 1.72289 | 26159 ft | 428 kts | 329° |
| 2026-05-05 18:42 | 40.11660 | 1.70915 | 26546 ft | 429 kts | 330° |
| 2026-05-05 18:42 | 40.14459 | 1.69525 | 26909 ft | 431 kts | 329° |
| 2026-05-05 18:43 | 40.17272 | 1.68111 | 27252 ft | 433 kts | 329° |
| 2026-05-05 18:43 | 40.20095 | 1.66676 | 27583 ft | 435 kts | 329° |
| 2026-05-05 18:43 | 40.22928 | 1.65225 | 27928 ft | 437 kts | 329° |
| 2026-05-05 18:43 | 40.25773 | 1.63759 | 28289 ft | 440 kts | 329° |
| 2026-05-05 18:44 | 40.28628 | 1.62283 | 28514 ft | 444 kts | 329° |
| 2026-05-05 18:44 | 40.31487 | 1.60803 | 28793 ft | 447 kts | 329° |
| 2026-05-05 18:44 | 40.34389 | 1.59301 | 29131 ft | 448 kts | 329° |
| 2026-05-05 18:44 | 40.37307 | 1.57792 | 29451 ft | 450 kts | 329° |
| 2026-05-05 18:45 | 40.40191 | 1.56297 | 29734 ft | 452 kts | 329° |
| 2026-05-05 18:45 | 40.43120 | 1.54778 | 30005 ft | 454 kts | 329° |
| 2026-05-05 18:45 | 40.46069 | 1.53248 | 30236 ft | 455 kts | 329° |
| 2026-05-05 18:45 | 40.49020 | 1.51714 | 30524 ft | 457 kts | 328° |
| 2026-05-05 18:46 | 40.51988 | 1.50172 | 30843 ft | 456 kts | 328° |
| 2026-05-05 18:46 | 40.54934 | 1.48640 | 31178 ft | 455 kts | 328° |
| 2026-05-05 18:46 | 40.57882 | 1.47104 | 31470 ft | 455 kts | 328° |
| 2026-05-05 18:46 | 40.60793 | 1.45585 | 31696 ft | 456 kts | 328° |
| 2026-05-05 18:47 | 40.63746 | 1.44043 | 31989 ft | 455 kts | 328° |
| 2026-05-05 18:47 | 40.66703 | 1.42501 | 32300 ft | 455 kts | 328° |
| 2026-05-05 18:47 | 40.69642 | 1.40968 | 32585 ft | 454 kts | 328° |
| 2026-05-05 18:47 | 40.72588 | 1.39430 | 32834 ft | 455 kts | 328° |
| 2026-05-05 18:48 | 40.75536 | 1.37888 | 33095 ft | 455 kts | 328° |
| 2026-05-05 18:48 | 40.78450 | 1.36363 | 33377 ft | 454 kts | 328° |
| 2026-05-05 18:48 | 40.81387 | 1.34824 | 33646 ft | 454 kts | 328° |
| 2026-05-05 18:48 | 40.84329 | 1.33281 | 33889 ft | 454 kts | 328° |
| 2026-05-05 18:49 | 40.87271 | 1.31735 | 34107 ft | 454 kts | 328° |
| 2026-05-05 18:49 | 40.90191 | 1.30201 | 34372 ft | 453 kts | 328° |
| 2026-05-05 18:49 | 40.93124 | 1.28659 | 34633 ft | 452 kts | 329° |
| 2026-05-05 18:49 | 40.96046 | 1.27120 | 34847 ft | 452 kts | 329° |
| 2026-05-05 18:50 | 40.98935 | 1.25597 | 35041 ft | 452 kts | 329° |
| 2026-05-05 18:50 | 41.01875 | 1.24045 | 35250 ft | 452 kts | 329° |
| 2026-05-05 18:50 | 41.04766 | 1.22518 | 35459 ft | 451 kts | 329° |
| 2026-05-05 18:50 | 41.07688 | 1.20974 | 35645 ft | 451 kts | 329° |
| 2026-05-05 18:51 | 41.10605 | 1.19430 | 35825 ft | 451 kts | 329° |
| 2026-05-05 18:51 | 41.13537 | 1.17911 | 36061 ft | 454 kts | 333° |
| 2026-05-05 18:51 | 41.16630 | 1.16825 | 36201 ft | 465 kts | 343° |
| 2026-05-05 18:51 | 41.19891 | 1.16371 | 36362 ft | 472 kts | 348° |
| 2026-05-05 18:52 | 41.23173 | 1.16109 | 36564 ft | 472 kts | 349° |
| 2026-05-05 18:52 | 41.26416 | 1.15864 | 36746 ft | 472 kts | 348° |
| 2026-05-05 18:52 | 41.29687 | 1.15567 | 36910 ft | 471 kts | 348° |
| 2026-05-05 18:52 | 41.32949 | 1.15233 | 37094 ft | 470 kts | 348° |
| 2026-05-05 18:53 | 41.36213 | 1.14885 | 37281 ft | 469 kts | 348° |
| 2026-05-05 18:53 | 41.39477 | 1.14543 | 37500 ft | 468 kts | 348° |
| 2026-05-05 18:53 | 41.42723 | 1.14208 | 37730 ft | 466 kts | 349° |
| 2026-05-05 18:53 | 41.45910 | 1.13880 | 37934 ft | 464 kts | 349° |
| 2026-05-05 18:54 | 41.52407 | 1.13206 | 37923 ft | 468 kts | 349° |
| 2026-05-05 18:54 | 41.58851 | 1.12520 | 37927 ft | 466 kts | 349° |